Time;durP1;ratioP1;P1;durP2;ratioP2;P2;SDS_P1;SDS_P2;PMS_P1;PMS_P2;Temp;Humidity;BMP_temperature;BMP_pressure;BME280_temperature;BME280_humidity;BME280_pressure;Samples;Min_cycle;Max_cycle;Signal;HPM_P1;HPM_P2
2021/08/19 00:01:26;;;;;;;1.17;0.90;;;;;;;18.31;63.29;100298.94;4953742;28;20034;-61
2021/08/19 00:03:52;;;;;;;2.35;0.88;;;;;;;18.30;63.47;100295.44;4952417;28;20031;-61
2021/08/19 00:06:18;;;;;;;2.80;1.05;;;;;;;18.29;63.38;100293.78;4952456;28;20070;-60
2021/08/19 00:08:44;;;;;;;2.40;0.90;;;;;;;18.29;63.59;100295.63;4952203;29;20111;-60
2021/08/19 00:11:11;;;;;;;1.10;0.90;;;;;;;18.28;63.42;100289.47;4952651;29;20106;-61
2021/08/19 00:13:37;;;;;;;3.38;1.10;;;;;;;18.29;63.49;100279.59;4952503;28;20035;-60
2021/08/19 00:16:04;;;;;;;1.90;0.90;;;;;;;18.28;63.43;100276.09;4955562;28;20042;-60
2021/08/19 00:18:30;;;;;;;2.88;0.90;;;;;;;18.27;63.52;100287.81;4955646;28;20043;-60
2021/08/19 00:20:56;;;;;;;2.58;1.15;;;;;;;18.28;63.58;100275.28;4955654;28;20023;-60
2021/08/19 00:23:22;;;;;;;2.42;0.98;;;;;;;18.26;63.61;100272.78;4955760;28;20070;-60
2021/08/19 00:25:51;;;;;;;1.50;1.15;;;;;;;18.26;63.50;100270.13;4955503;28;20031;-60
2021/08/19 00:28:17;;;;;;;4.47;1.30;;;;;;;18.27;63.36;100266.41;4954520;29;20121;-60
2021/08/19 00:30:42;;;;;;;1.92;0.90;;;;;;;18.28;63.59;100269.91;4955665;28;20723;-60
2021/08/19 00:33:09;;;;;;;1.65;1.13;;;;;;;18.29;63.66;100266.22;4955407;28;20479;-60
2021/08/19 00:35:35;;;;;;;1.70;0.98;;;;;;;18.29;63.86;100266.22;4955637;29;20035;-60
2021/08/19 00:38:01;;;;;;;3.03;1.05;;;;;;;18.29;63.61;100266.22;4955635;28;20066;-60
2021/08/19 00:40:27;;;;;;;1.65;1.00;;;;;;;18.28;63.56;100268.06;4955319;28;20039;-61
2021/08/19 00:42:52;;;;;;;1.10;1.00;;;;;;;18.25;63.62;100260.41;4955251;29;20031;-60
2021/08/19 00:45:21;;;;;;;1.65;1.02;;;;;;;18.24;63.62;100258.78;4955128;28;20525;-60
2021/08/19 00:47:46;;;;;;;1.85;1.30;;;;;;;18.24;63.93;100261.47;4955826;29;20114;-60
2021/08/19 00:50:13;;;;;;;1.55;1.30;;;;;;;18.22;63.95;100258.97;4955203;28;20066;-60
2021/08/19 00:52:40;;;;;;;1.73;1.08;;;;;;;18.22;64.03;100261.66;4954946;28;20478;-61
2021/08/19 00:55:09;;;;;;;2.08;1.30;;;;;;;18.22;64.02;100252.78;4955046;28;20027;-60
2021/08/19 00:57:37;;;;;;;3.90;1.30;;;;;;;18.22;63.98;100256.31;4955322;28;20114;-60
2021/08/19 01:00:03;;;;;;;1.98;1.15;;;;;;;18.22;64.10;100261.66;4955144;28;20035;-60
2021/08/19 01:02:29;;;;;;;2.25;1.40;;;;;;;18.21;64.17;100252.00;4955493;28;20031;-61
2021/08/19 01:04:55;;;;;;;2.28;1.38;;;;;;;18.21;63.99;100243.97;4954810;28;20034;-60
2021/08/19 01:07:20;;;;;;;2.38;1.50;;;;;;;18.20;63.92;100236.94;4955052;29;20059;-60
2021/08/19 01:09:46;;;;;;;10.20;2.42;;;;;;;18.20;64.17;100234.28;4954883;28;20039;-60
2021/08/19 01:12:13;;;;;;;2.08;1.60;;;;;;;18.20;64.18;100228.13;4954620;28;20035;-60
2021/08/19 01:14:41;;;;;;;3.13;1.42;;;;;;;18.20;64.06;100230.78;4953598;29;20031;-60
2021/08/19 01:17:08;;;;;;;1.67;1.58;;;;;;;18.19;64.03;100229.97;4954444;28;20043;-60
2021/08/19 01:19:35;;;;;;;1.60;1.40;;;;;;;18.18;64.17;100224.81;4954742;29;20529;-61
2021/08/19 01:22:00;;;;;;;4.28;1.83;;;;;;;18.18;64.33;100225.66;4953142;29;20039;-61
2021/08/19 01:24:26;;;;;;;2.08;1.88;;;;;;;18.18;64.26;100222.13;4954644;28;20093;-61
2021/08/19 01:26:53;;;;;;;4.50;1.60;;;;;;;18.18;64.12;100219.47;4953578;28;20039;-60
2021/08/19 01:29:19;;;;;;;1.80;1.38;;;;;;;18.18;64.15;100209.59;4954292;28;20328;-60
2021/08/19 01:31:59;;;;;;;2.50;1.38;;;;;;;18.15;64.15;100201.97;4954773;28;20043;-61
2021/08/19 01:34:26;;;;;;;2.05;1.40;;;;;;;18.16;64.24;100213.47;4954458;28;20039;-61
2021/08/19 01:36:52;;;;;;;1.90;1.45;;;;;;;18.16;64.29;100208.97;4954397;28;20121;-60
2021/08/19 01:39:18;;;;;;;2.22;1.75;;;;;;;18.15;64.20;100210.00;4954183;28;20494;-60
2021/08/19 01:41:44;;;;;;;2.15;1.25;;;;;;;18.15;64.08;100206.50;4954396;28;20042;-60
2021/08/19 01:44:09;;;;;;;2.83;1.60;;;;;;;18.16;64.38;100200.09;4954106;28;20174;-60
2021/08/19 01:46:38;;;;;;;2.22;1.65;;;;;;;18.15;64.41;100195.78;4954036;28;20047;-60
2021/08/19 01:49:04;;;;;;;6.30;1.90;;;;;;;18.15;64.38;100185.09;4954315;28;20042;-60
2021/08/19 01:51:30;;;;;;;2.47;1.60;;;;;;;18.16;64.37;100186.72;4953734;29;20426;-60
2021/08/19 01:53:56;;;;;;;3.00;1.60;;;;;;;18.15;64.34;100169.88;4957501;28;20486;-60
2021/08/19 01:56:22;;;;;;;2.28;1.55;;;;;;;18.12;64.47;100164.94;4964644;28;20035;-60
2021/08/19 01:58:49;;;;;;;2.63;1.45;;;;;;;18.14;64.44;100168.22;4953060;28;20042;-60
2021/08/19 02:01:21;;;;;;;2.08;1.48;;;;;;;18.12;64.57;100162.25;4953911;28;20042;-60
2021/08/19 02:03:48;;;;;;;2.00;1.38;;;;;;;18.14;64.52;100162.84;4966732;28;20581;-60
2021/08/19 02:06:13;;;;;;;2.85;1.52;;;;;;;18.14;64.46;100159.38;4952704;29;20035;-60
2021/08/19 02:08:39;;;;;;;2.53;1.70;;;;;;;18.12;64.47;100156.91;4953636;28;20027;-60
2021/08/19 02:11:05;;;;;;;1.73;1.50;;;;;;;18.15;64.31;100158.34;4961743;28;20019;-61
2021/08/19 02:13:31;;;;;;;5.32;1.80;;;;;;;18.15;64.39;100158.34;4956976;28;20587;-60
2021/08/19 02:15:58;;;;;;;1.65;1.50;;;;;;;18.15;64.45;100153.00;4953703;28;20104;-60
2021/08/19 02:18:24;;;;;;;1.58;1.33;;;;;;;18.14;64.58;100162.84;4953639;28;20510;-60
2021/08/19 02:20:50;;;;;;;2.22;1.52;;;;;;;18.14;64.37;100148.69;4953641;28;20062;-60
2021/08/19 02:23:16;;;;;;;2.90;1.60;;;;;;;18.11;64.49;100149.84;4953899;28;20463;-60
2021/08/19 02:25:41;;;;;;;1.95;1.48;;;;;;;18.12;64.65;100150.72;4953348;29;20386;-60
2021/08/19 02:28:07;;;;;;;4.90;2.10;;;;;;;18.11;64.63;100144.50;4961172;28;20497;-60
2021/08/19 02:30:33;;;;;;;1.75;1.40;;;;;;;18.13;64.54;100139.81;4956355;28;20062;-60
2021/08/19 02:32:59;;;;;;;3.75;1.65;;;;;;;18.09;64.75;100141.25;4953302;28;20142;-61
2021/08/19 02:35:29;;;;;;;3.60;1.73;;;;;;;18.10;64.61;100133.00;4953484;28;20062;-61
2021/08/19 02:37:56;;;;;;;1.83;1.30;;;;;;;18.13;64.61;100133.63;4952956;28;20035;-60
2021/08/19 02:40:23;;;;;;;2.30;1.50;;;;;;;18.08;64.53;100123.53;4953326;29;20036;-60
2021/08/19 02:42:50;;;;;;;1.88;1.25;;;;;;;18.11;64.58;100128.47;4953015;28;20043;-60
2021/08/19 02:45:16;;;;;;;2.35;1.63;;;;;;;18.10;64.74;100127.66;4952927;28;20028;-60
2021/08/19 02:47:42;;;;;;;1.73;1.50;;;;;;;18.10;64.66;100127.66;4953629;29;20498;-60
2021/08/19 02:50:08;;;;;;;3.28;1.40;;;;;;;18.09;64.67;100119.84;4953145;28;20042;-60
2021/08/19 02:52:34;;;;;;;2.40;1.25;;;;;;;18.07;64.63;100112.03;4951730;29;20038;-60
2021/08/19 02:55:00;;;;;;;2.95;1.60;;;;;;;18.08;64.76;100108.31;4952919;29;20039;-60
2021/08/19 02:57:26;;;;;;;2.15;1.35;;;;;;;18.09;64.80;100109.13;4952952;28;20035;-60
2021/08/19 02:59:52;;;;;;;1.70;1.42;;;;;;;18.08;64.79;100094.94;4952850;29;20090;-60
2021/08/19 03:02:17;;;;;;;1.35;1.25;;;;;;;18.08;64.63;100091.44;4954431;28;20422;-60
2021/08/19 03:04:43;;;;;;;3.63;1.15;;;;;;;18.08;64.79;100092.25;4952961;29;20043;-60
2021/08/19 03:07:11;;;;;;;1.70;1.45;;;;;;;18.07;64.77;100082.59;4952890;28;20055;-60
2021/08/19 03:09:37;;;;;;;1.92;0.93;;;;;;;18.07;64.68;100077.25;4951689;29;20039;-60
2021/08/19 03:12:04;;;;;;;1.63;1.13;;;;;;;18.06;64.80;100074.78;4952738;28;20031;-61
2021/08/19 03:14:30;;;;;;;1.40;1.17;;;;;;;18.06;64.87;100072.91;4952869;28;20487;-60
2021/08/19 03:16:56;;;;;;;2.35;1.33;;;;;;;18.05;64.88;100067.75;4952662;28;20050;-60
2021/08/19 03:19:22;;;;;;;1.13;1.00;;;;;;;18.04;64.80;100064.28;4952900;29;20031;-60
2021/08/19 03:21:48;;;;;;;2.35;1.13;;;;;;;18.04;64.87;100064.28;4952742;28;20046;-60
2021/08/19 03:24:14;;;;;;;1.10;1.00;;;;;;;18.03;65.02;100062.63;4952623;29;20035;-60
2021/08/19 03:26:40;;;;;;;1.95;1.20;;;;;;;18.04;64.81;100060.78;4952791;28;20513;-60
2021/08/19 03:29:06;;;;;;;1.35;0.98;;;;;;;18.03;64.72;100064.50;4952611;28;20046;-60
2021/08/19 03:31:32;;;;;;;1.90;1.40;;;;;;;18.03;64.96;100070.66;4952718;28;20042;-60
2021/08/19 03:33:58;;;;;;;1.35;1.02;;;;;;;18.02;65.03;100071.69;4952565;28;20043;-60
2021/08/19 03:36:25;;;;;;;2.10;1.50;;;;;;;18.02;64.97;100065.50;4952938;28;20178;-59
2021/08/19 03:38:52;;;;;;;1.75;1.08;;;;;;;18.03;64.99;100069.84;4951469;29;20034;-59
2021/08/19 03:41:18;;;;;;;1.95;1.13;;;;;;;18.03;64.76;100073.31;4952358;28;20033;-59
2021/08/19 03:43:47;;;;;;;2.95;1.40;;;;;;;18.02;64.82;100060.97;4952628;29;20036;-60
2021/08/19 03:46:14;;;;;;;1.65;1.17;;;;;;;18.00;64.89;100055.00;4951013;29;20040;-59
2021/08/19 03:48:40;;;;;;;2.28;1.27;;;;;;;18.01;64.92;100053.16;4953119;28;20043;-59
2021/08/19 03:51:09;;;;;;;1.30;1.20;;;;;;;18.02;65.03;100049.44;4953942;28;20118;-59
2021/08/19 03:53:38;;;;;;;4.25;1.45;;;;;;;18.01;64.93;100058.50;4956079;29;20551;-59
2021/08/19 03:56:05;;;;;;;2.60;1.45;;;;;;;18.01;64.90;100043.31;4956108;28;20035;-59
2021/08/19 03:58:31;;;;;;;2.53;1.63;;;;;;;18.00;65.12;100044.31;4955918;28;20079;-59
2021/08/19 04:00:57;;;;;;;1.77;1.05;;;;;;;18.01;64.89;100045.16;4955962;28;20032;-59
2021/08/19 04:03:23;;;;;;;1.63;1.00;;;;;;;18.00;64.78;100036.28;4963426;28;20106;-60
2021/08/19 04:05:48;;;;;;;1.25;1.15;;;;;;;18.01;64.82;100034.44;4955786;28;20185;-60
2021/08/19 04:08:14;;;;;;;2.60;1.42;;;;;;;18.02;64.87;100038.75;4956360;28;20046;-60
2021/08/19 04:10:40;;;;;;;3.92;1.27;;;;;;;18.00;64.96;100036.28;4965923;28;20482;-60
2021/08/19 04:13:05;;;;;;;1.17;1.00;;;;;;;18.00;64.87;100027.47;4960464;28;20038;-60
2021/08/19 04:15:31;;;;;;;2.08;1.25;;;;;;;17.98;65.10;100025.78;4962985;28;20039;-60
2021/08/19 04:17:57;;;;;;;1.45;1.35;;;;;;;18.00;64.85;100019.44;4961549;28;20495;-60
2021/08/19 04:20:23;;;;;;;3.10;1.65;;;;;;;18.00;65.00;100020.25;4955874;28;20049;-60
2021/08/19 04:22:48;;;;;;;1.70;1.13;;;;;;;17.98;65.04;100017.78;4955508;28;20414;-60
2021/08/19 04:25:14;;;;;;;1.55;1.10;;;;;;;18.00;64.90;100016.78;4955550;28;20031;-60
2021/08/19 04:27:40;;;;;;;4.00;1.50;;;;;;;18.00;64.97;100019.44;4961965;28;20071;-60
2021/08/19 04:30:08;;;;;;;1.85;1.20;;;;;;;17.99;64.96;100018.59;4955406;28;20061;-60
2021/08/19 04:32:34;;;;;;;1.70;1.02;;;;;;;17.98;65.18;100019.66;4955543;28;20457;-60
2021/08/19 04:35:00;;;;;;;2.33;1.20;;;;;;;17.99;65.04;100021.28;4955333;28;20552;-60
2021/08/19 04:37:26;;;;;;;1.20;1.10;;;;;;;17.98;64.97;100011.63;4955402;28;20104;-60
2021/08/19 04:39:53;;;;;;;2.35;1.25;;;;;;;17.97;65.00;100013.47;4955272;28;20042;-59
2021/08/19 04:42:20;;;;;;;1.60;0.90;;;;;;;17.97;64.93;100009.97;4955299;28;20038;-60
2021/08/19 04:44:45;;;;;;;1.98;1.15;;;;;;;17.96;64.92;100003.78;4961190;28;20031;-60
2021/08/19 04:47:11;;;;;;;1.58;1.33;;;;;;;17.96;64.98;100005.66;4955598;28;20049;-59
2021/08/19 04:49:37;;;;;;;1.45;1.10;;;;;;;17.95;65.10;99996.78;4955382;28;20032;-59
2021/08/19 04:52:03;;;;;;;1.55;1.17;;;;;;;17.96;64.96;100002.97;4954216;29;20039;-59
2021/08/19 04:54:28;;;;;;;2.72;1.50;;;;;;;17.96;65.04;100000.31;4955131;28;20050;-60
2021/08/19 04:56:55;;;;;;;3.00;1.20;;;;;;;17.96;64.97;99997.63;4954880;29;20406;-59
2021/08/19 04:59:20;;;;;;;1.35;1.25;;;;;;;17.96;65.32;99995.75;4955151;29;20035;-60
2021/08/19 05:01:46;;;;;;;1.67;1.15;;;;;;;17.94;65.23;99992.50;4954689;28;20560;-59
2021/08/19 05:04:12;;;;;;;1.10;1.00;;;;;;;17.95;65.18;99993.28;4954895;28;20027;-60
2021/08/19 05:06:39;;;;;;;1.30;1.10;;;;;;;17.95;65.28;99991.44;4938115;29;20402;-60
2021/08/19 05:09:06;;;;;;;3.05;1.30;;;;;;;17.94;65.34;99992.50;4954925;28;21465;-60
2021/08/19 05:11:32;;;;;;;1.33;1.20;;;;;;;17.94;65.11;99999.66;4953601;29;20031;-60
2021/08/19 05:14:03;;;;;;;1.88;1.20;;;;;;;17.95;65.19;99994.13;4954513;28;20043;-60
2021/08/19 05:16:29;;;;;;;2.17;1.13;;;;;;;17.94;65.16;99988.97;4953634;29;20043;-59
2021/08/19 05:18:55;;;;;;;2.00;1.40;;;;;;;17.93;65.43;99992.69;4959078;28;20112;-60
2021/08/19 05:21:22;;;;;;;1.77;1.20;;;;;;;17.91;65.39;99990.22;4937455;29;20133;-60
2021/08/19 05:23:47;;;;;;;1.90;1.50;;;;;;;17.91;65.24;99992.91;4954589;29;20055;-60
2021/08/19 05:26:13;;;;;;;1.83;1.15;;;;;;;17.91;65.26;99992.91;4954428;28;20067;-60
2021/08/19 05:28:39;;;;;;;1.67;0.95;;;;;;;17.91;65.38;99992.91;4954570;28;20044;-59
2021/08/19 05:31:05;;;;;;;1.42;1.30;;;;;;;17.92;65.32;99996.38;4958466;28;20081;-59
2021/08/19 05:33:30;;;;;;;2.33;1.33;;;;;;;17.91;65.31;99994.75;4962296;28;20033;-60
2021/08/19 05:35:56;;;;;;;1.92;1.17;;;;;;;17.89;65.59;99991.44;4953668;28;20166;-60
2021/08/19 05:38:22;;;;;;;2.63;1.33;;;;;;;17.90;65.41;99998.44;4952658;29;20066;-59
2021/08/19 05:40:48;;;;;;;2.05;1.10;;;;;;;17.91;65.32;99994.75;4959842;28;20046;-60
2021/08/19 05:43:13;;;;;;;2.47;1.38;;;;;;;17.89;65.64;99996.78;4954363;28;20158;-59
2021/08/19 05:45:42;;;;;;;1.50;1.10;;;;;;;17.90;65.67;99998.44;4952698;29;20055;-60
2021/08/19 05:48:08;;;;;;;1.70;1.30;;;;;;;17.90;65.41;99998.44;4959860;28;20081;-59
2021/08/19 05:50:34;;;;;;;2.50;1.30;;;;;;;17.90;65.25;99998.44;4954019;28;20083;-59
2021/08/19 05:53:00;;;;;;;2.58;1.23;;;;;;;17.90;65.48;99995.78;4954106;28;20516;-59
2021/08/19 05:55:26;;;;;;;2.33;1.30;;;;;;;17.88;65.63;100000.50;4954033;28;20042;-59
2021/08/19 05:57:51;;;;;;;1.60;1.23;;;;;;;17.88;65.87;99995.97;4954117;28;20039;-59
2021/08/19 06:00:22;;;;;;;1.33;1.13;;;;;;;17.88;65.52;99995.97;4952306;29;20035;-59
2021/08/19 06:02:51;;;;;;;3.80;1.55;;;;;;;17.88;65.63;100000.50;4953870;28;20173;-59
2021/08/19 06:05:17;;;;;;;1.85;1.20;;;;;;;17.88;65.56;100000.50;4962070;28;20509;-59
2021/08/19 06:07:44;;;;;;;2.00;1.55;;;;;;;17.86;65.77;100003.38;4954057;28;20027;-59
2021/08/19 06:10:11;;;;;;;3.10;1.50;;;;;;;17.87;65.78;99996.19;4953729;28;20086;-59
2021/08/19 06:12:37;;;;;;;1.63;1.10;;;;;;;17.88;65.56;99997.81;4951826;28;20019;-59
2021/08/19 06:15:05;;;;;;;1.50;1.13;;;;;;;17.87;65.64;99990.84;4953569;28;20039;-59
2021/08/19 06:17:33;;;;;;;1.30;1.00;;;;;;;17.86;65.85;99992.69;4953399;28;20589;-59
2021/08/19 06:20:00;;;;;;;1.90;1.42;;;;;;;17.87;65.58;99991.63;4952358;29;20058;-59
2021/08/19 06:22:26;;;;;;;3.72;1.02;;;;;;;17.85;65.91;99989.16;4953217;29;20031;-60
2021/08/19 06:24:52;;;;;;;1.33;1.05;;;;;;;17.86;66.06;99992.69;4953531;28;20027;-59
2021/08/19 06:27:18;;;;;;;3.20;1.45;;;;;;;17.85;66.04;99991.84;4952170;29;20039;-59
2021/08/19 06:29:43;;;;;;;1.45;1.35;;;;;;;17.85;65.91;99991.84;4951784;28;20038;-60
2021/08/19 06:32:09;;;;;;;2.00;1.20;;;;;;;17.84;65.82;99987.53;4963478;28;20027;-60
2021/08/19 06:34:35;;;;;;;1.48;1.20;;;;;;;17.85;65.82;99988.38;4955237;28;20051;-59
2021/08/19 06:37:02;;;;;;;2.08;1.30;;;;;;;17.86;65.83;99987.34;4964165;28;20046;-60
2021/08/19 06:39:28;;;;;;;3.33;1.30;;;;;;;17.85;66.05;99988.38;4958506;28;20081;-60
2021/08/19 06:41:54;;;;;;;2.42;1.60;;;;;;;17.84;66.01;99982.19;4951895;29;20035;-60
2021/08/19 06:44:19;;;;;;;1.77;1.40;;;;;;;17.83;66.40;99980.56;4953319;28;20031;-59
2021/08/19 06:46:45;;;;;;;2.20;1.30;;;;;;;17.84;66.13;99973.34;4952923;28;20050;-60
2021/08/19 06:49:11;;;;;;;5.05;1.50;;;;;;;17.83;66.40;99972.53;4958773;28;20039;-60
2021/08/19 06:51:37;;;;;;;1.95;1.63;;;;;;;17.84;66.68;99976.84;4953171;28;20063;-60
2021/08/19 06:54:03;;;;;;;3.55;1.50;;;;;;;17.84;66.60;99970.66;4951846;29;20094;-59
2021/08/19 06:56:29;;;;;;;1.20;1.10;;;;;;;17.84;66.42;99971.50;4952808;28;20038;-60
2021/08/19 06:58:55;;;;;;;3.38;1.60;;;;;;;17.84;66.64;99968.00;4953162;29;20035;-59
2021/08/19 07:01:21;;;;;;;3.05;1.35;;;;;;;17.84;66.61;99970.66;4953055;28;20055;-59
2021/08/19 07:03:46;;;;;;;3.72;1.35;;;;;;;17.84;66.70;99971.50;4953059;28;20390;-59
2021/08/19 07:06:14;;;;;;;1.42;1.33;;;;;;;17.84;66.95;99962.66;4961399;28;20641;-59
2021/08/19 07:08:41;;;;;;;2.25;1.40;;;;;;;17.83;67.17;99967.19;4952917;29;20542;-59
2021/08/19 07:11:06;;;;;;;1.83;1.50;;;;;;;17.83;67.07;99971.69;4951452;29;20558;-59
2021/08/19 07:13:32;;;;;;;2.10;1.70;;;;;;;17.84;67.13;99973.34;4952822;28;20063;-60
2021/08/19 07:15:58;;;;;;;1.80;1.50;;;;;;;17.84;67.48;99976.84;4952628;28;20283;-59
2021/08/19 07:18:23;;;;;;;2.63;1.60;;;;;;;17.83;67.67;99971.69;4953014;28;20043;-60
2021/08/19 07:20:49;;;;;;;3.10;2.03;;;;;;;17.83;68.10;99969.84;4952551;28;20479;-60
2021/08/19 07:23:15;;;;;;;2.58;1.13;;;;;;;17.85;68.08;99966.97;4952768;28;20032;-59
2021/08/19 07:25:40;;;;;;;1.90;1.70;;;;;;;17.82;68.21;99973.53;4954362;29;20046;-59
2021/08/19 07:28:06;;;;;;;2.45;1.67;;;;;;;17.83;68.00;99980.56;4956575;28;20054;-59
2021/08/19 07:30:32;;;;;;;4.20;1.67;;;;;;;17.84;67.95;99976.84;4955389;29;20094;-59
2021/08/19 07:32:59;;;;;;;2.28;1.63;;;;;;;17.82;68.25;99978.09;4956503;28;20097;-59
2021/08/19 07:35:40;;;;;;;1.83;1.63;;;;;;;17.81;68.38;99976.41;4956621;28;20041;-59
2021/08/19 07:38:05;;;;;;;1.95;1.52;;;;;;;17.82;68.12;99973.53;4956586;28;20031;-60
2021/08/19 07:40:33;;;;;;;2.35;1.70;;;;;;;17.83;69.17;99979.72;4963927;28;20043;-60
2021/08/19 07:42:59;;;;;;;1.60;1.35;;;;;;;17.82;68.46;99978.88;4956256;28;20414;-60
2021/08/19 07:45:26;;;;;;;2.78;1.35;;;;;;;17.81;67.58;99977.25;4956381;28;20055;-59
2021/08/19 07:47:52;;;;;;;4.30;1.17;;;;;;;17.83;67.70;99987.75;4955374;29;20454;-59
2021/08/19 07:50:19;;;;;;;2.00;1.27;;;;;;;17.82;66.88;99978.09;4956208;29;20035;-59
2021/08/19 07:52:45;;;;;;;1.80;1.30;;;;;;;17.82;67.36;99975.41;4956198;29;20027;-59
2021/08/19 07:55:12;;;;;;;0.75;0.75;;;;;;;17.81;67.59;99979.09;4955965;28;20035;-59
2021/08/19 07:57:46;;;;;;;2.00;1.40;;;;;;;17.81;68.84;99969.22;4956023;28;20039;-59
2021/08/19 08:00:13;;;;;;;2.42;1.55;;;;;;;17.82;68.99;99964.72;4955977;28;20093;-59
2021/08/19 08:02:40;;;;;;;1.52;1.30;;;;;;;17.80;68.98;99969.44;4956138;28;20171;-59
2021/08/19 08:05:06;;;;;;;2.45;1.95;;;;;;;17.81;70.34;99973.75;4956089;28;20031;-59
2021/08/19 08:07:32;;;;;;;4.03;1.90;;;;;;;17.81;70.45;99977.25;4956010;28;20024;-59
2021/08/19 08:09:58;;;;;;;3.55;1.67;;;;;;;17.81;71.09;99976.41;4954754;29;20533;-59
2021/08/19 08:12:24;;;;;;;2.70;1.80;;;;;;;17.82;71.41;99980.75;4954439;29;20035;-59
2021/08/19 08:14:50;;;;;;;2.30;1.52;;;;;;;17.80;71.69;99980.97;4956200;28;20237;-59
2021/08/19 08:17:20;;;;;;;5.70;1.58;;;;;;;17.79;71.08;99990.00;4955725;29;20490;-59
2021/08/19 08:19:50;;;;;;;3.58;1.27;;;;;;;17.80;70.13;99980.13;4955729;29;20041;-59
2021/08/19 08:22:18;;;;;;;1.40;1.30;;;;;;;17.81;71.28;99971.06;4954454;29;20430;-59
2021/08/19 08:24:44;;;;;;;3.22;1.42;;;;;;;17.80;70.93;99980.97;4955553;28;20474;-59
2021/08/19 08:27:09;;;;;;;1.70;1.17;;;;;;;17.80;69.40;99980.13;4954489;29;20122;-59
2021/08/19 08:29:35;;;;;;;1.42;1.00;;;;;;;17.81;68.23;99987.09;4954212;29;20035;-59
2021/08/19 08:32:06;;;;;;;3.22;1.55;;;;;;;17.81;67.82;99984.44;4954307;29;20031;-59
2021/08/19 08:34:33;;;;;;;1.83;1.08;;;;;;;17.80;69.32;99982.81;4955649;28;20058;-59
2021/08/19 08:36:59;;;;;;;1.50;1.08;;;;;;;17.80;70.10;99974.78;4954926;28;20570;-59
2021/08/19 08:39:25;;;;;;;1.38;0.90;;;;;;;17.82;69.78;99983.44;4962875;28;20118;-60
2021/08/19 08:41:54;;;;;;;1.33;0.93;;;;;;;17.82;71.11;99984.22;4955435;28;20031;-60
2021/08/19 08:44:20;;;;;;;1.85;1.17;;;;;;;17.81;71.73;99997.81;4955511;28;20039;-60
2021/08/19 08:46:47;;;;;;;1.73;0.80;;;;;;;17.82;71.86;99986.09;4954940;28;20043;-60
2021/08/19 08:49:15;;;;;;;2.20;0.70;;;;;;;17.81;72.75;99985.28;4955847;28;20089;-60
2021/08/19 08:51:51;;;;;;;1.98;0.80;;;;;;;17.81;73.18;99979.91;4955002;28;20552;-60
2021/08/19 08:54:17;;;;;;;1.75;1.00;;;;;;;17.82;73.21;99981.56;4955220;29;20074;-59
2021/08/19 08:56:43;;;;;;;2.10;1.17;;;;;;;17.80;74.43;99977.44;4954967;29;20027;-59
2021/08/19 08:59:09;;;;;;;1.40;1.20;;;;;;;17.81;73.80;99979.09;4955165;28;20062;-60
2021/08/19 09:01:34;;;;;;;1.15;0.80;;;;;;;17.83;73.37;99974.38;4954988;29;20487;-59
2021/08/19 09:04:01;;;;;;;1.45;1.10;;;;;;;17.82;74.70;99983.44;4955086;28;20031;-59
2021/08/19 09:06:35;;;;;;;0.90;0.90;;;;;;;17.82;73.61;99975.41;4955020;28;20046;-59
2021/08/19 09:09:13;;;;;;;1.23;0.98;;;;;;;17.82;72.73;99978.09;4953539;29;20039;-60
2021/08/19 09:11:43;;;;;;;1.80;1.10;;;;;;;17.81;73.44;99979.09;4954911;28;20424;-60
2021/08/19 09:14:21;;;;;;;1.60;1.00;;;;;;;17.83;72.91;99985.91;4954735;28;20043;-60
2021/08/19 09:16:47;;;;;;;1.45;1.00;;;;;;;17.81;74.60;99976.41;4954845;28;20087;-60
2021/08/19 09:19:20;;;;;;;1.65;1.00;;;;;;;17.83;74.08;99977.03;4954620;29;20498;-59
2021/08/19 09:21:48;;;;;;;1.92;0.98;;;;;;;17.80;75.54;99978.28;4955033;28;20035;-59
2021/08/19 09:24:19;;;;;;;0.90;0.80;;;;;;;17.81;75.41;99979.91;4954433;28;20046;-60
2021/08/19 09:26:48;;;;;;;1.08;0.70;;;;;;;17.82;74.45;99973.53;4954612;28;20115;-60
2021/08/19 09:29:15;;;;;;;0.70;0.68;;;;;;;17.82;74.70;99972.75;4953518;29;20035;-60
2021/08/19 09:31:41;;;;;;;1.45;0.88;;;;;;;17.82;73.52;99976.22;4954393;28;20035;-60
2021/08/19 09:34:06;;;;;;;1.15;0.80;;;;;;;17.82;74.70;99978.09;4954547;29;20058;-60
2021/08/19 09:36:34;;;;;;;0.95;0.70;;;;;;;17.81;74.70;99979.91;4954252;28;20027;-59
2021/08/19 09:39:04;;;;;;;1.27;0.75;;;;;;;17.82;75.09;99980.75;4959145;28;20058;-60
2021/08/19 09:41:30;;;;;;;0.60;0.55;;;;;;;17.83;74.84;99974.38;4955296;28;20045;-60
2021/08/19 09:43:58;;;;;;;1.25;0.50;;;;;;;17.84;73.82;99973.34;4954330;28;20406;-60
2021/08/19 09:46:37;;;;;;;0.40;0.40;;;;;;;17.86;75.38;99979.31;4953654;28;20062;-60
2021/08/19 09:49:28;;;;;;;1.10;0.50;;;;;;;17.87;76.03;99980.16;4954355;29;20403;-59
2021/08/19 09:52:09;;;;;;;0.65;0.40;;;;;;;17.87;75.52;99980.94;4953932;28;20027;-60
2021/08/19 09:54:38;;;;;;;0.57;0.40;;;;;;;17.85;76.10;99975.00;4954144;28;20089;-60
2021/08/19 09:57:05;;;;;;;0.30;0.30;;;;;;;17.88;75.63;99976.44;4954132;28;20439;-60
2021/08/19 09:59:37;;;;;;;1.30;0.40;;;;;;;17.90;76.79;99974.38;4954182;28;20094;-60
2021/08/19 10:02:04;;;;;;;1.48;0.43;;;;;;;17.87;76.77;99978.28;4953997;28;20422;-59
2021/08/19 10:04:30;;;;;;;0.63;0.43;;;;;;;17.87;77.21;99986.28;4953925;28;20098;-60
2021/08/19 10:06:57;;;;;;;0.68;0.30;;;;;;;17.87;76.86;99980.94;4953857;28;20486;-59
2021/08/19 10:09:23;;;;;;;0.40;0.40;;;;;;;17.89;77.67;99986.09;4953696;28;20038;-60
2021/08/19 10:11:50;;;;;;;1.75;0.40;;;;;;;17.90;77.97;99982.41;4953776;28;20035;-59
2021/08/19 10:14:18;;;;;;;2.35;0.60;;;;;;;17.89;77.82;99986.09;4953466;28;20117;-60
2021/08/19 10:16:46;;;;;;;0.30;0.30;;;;;;;17.87;78.39;99985.50;4953755;28;20086;-60
2021/08/19 10:19:36;;;;;;;0.38;0.30;;;;;;;17.88;79.06;99981.78;4953404;29;20027;-59
2021/08/19 10:22:06;;;;;;;0.65;0.20;;;;;;;17.89;78.35;99980.75;4948673;28;20053;-60
2021/08/19 10:24:34;;;;;;;0.40;0.20;;;;;;;17.89;78.75;99980.75;4953379;28;20023;-60
2021/08/19 10:27:10;;;;;;;1.00;0.38;;;;;;;17.90;78.98;99977.88;4953425;29;20098;-59
2021/08/19 10:29:59;;;;;;;0.95;0.30;;;;;;;17.92;78.78;99980.31;4936195;29;20035;-59
2021/08/19 10:32:30;;;;;;;0.60;0.20;;;;;;;17.94;78.87;99978.28;4952410;28;20509;-60
2021/08/19 10:35:08;;;;;;;0.68;0.30;;;;;;;17.94;78.55;99981.78;4953239;28;20034;-59
2021/08/19 10:37:46;;;;;;;0.43;0.43;;;;;;;17.93;72.85;99973.97;4953379;28;20042;-60
2021/08/19 10:40:24;;;;;;;0.45;0.30;;;;;;;17.93;73.47;99972.09;4961191;28;20430;-60
2021/08/19 10:42:54;;;;;;;0.20;0.20;;;;;;;17.93;72.33;99974.78;4952864;28;20056;-60
2021/08/19 10:45:26;;;;;;;0.20;0.20;;;;;;;17.95;74.02;99972.72;4951807;29;20043;-60
2021/08/19 10:47:53;;;;;;;0.20;0.20;;;;;;;17.97;76.12;99977.88;4952628;29;20035;-59
2021/08/19 10:50:30;;;;;;;0.20;0.20;;;;;;;17.99;75.73;99978.50;4953331;28;20050;-60
2021/08/19 10:53:00;;;;;;;0.82;0.20;;;;;;;18.01;75.48;99967.59;4953060;28;20042;-61
2021/08/19 10:55:39;;;;;;;0.65;0.10;;;;;;;18.01;76.61;99965.75;4953467;28;20058;-60
2021/08/19 10:58:21;;;;;;;0.70;0.20;;;;;;;18.03;76.08;99958.34;4952404;28;20039;-60
2021/08/19 11:00:47;;;;;;;0.20;0.20;;;;;;;18.04;75.94;99962.66;4952929;29;20031;-59
2021/08/19 11:03:54;;;;;;;0.25;0.25;;;;;;;18.06;77.43;99967.81;4952047;29;20434;-60
2021/08/19 11:06:44;;;;;;;2.20;0.10;;;;;;;18.07;77.10;99961.44;4912451;29;20077;-60
2021/08/19 11:09:13;;;;;;;0.65;0.10;;;;;;;18.09;77.64;99962.84;4952348;28;20035;-59
2021/08/19 11:11:39;;;;;;;0.10;0.10;;;;;;;18.10;77.94;99959.16;4952629;28;20503;-60
2021/08/19 11:14:12;;;;;;;0.10;0.10;;;;;;;18.13;78.35;99957.94;4952547;28;20050;-60
2021/08/19 11:16:40;;;;;;;0.10;0.10;;;;;;;18.14;78.78;99954.25;4951712;29;20043;-60
2021/08/19 11:19:10;;;;;;;0.55;0.10;;;;;;;18.16;78.17;99956.72;4952548;29;20054;-59
2021/08/19 11:21:36;;;;;;;0.65;0.20;;;;;;;18.17;76.96;99953.03;4952572;28;20394;-60
2021/08/19 11:24:02;;;;;;;0.60;0.20;;;;;;;18.19;76.18;99953.63;4952692;28;20032;-59
2021/08/19 11:26:28;;;;;;;0.20;0.20;;;;;;;18.21;75.78;99954.25;4952632;28;20487;-60
2021/08/19 11:28:53;;;;;;;0.20;0.20;;;;;;;18.22;76.62;99950.53;4952623;28;20098;-60
2021/08/19 11:31:22;;;;;;;0.20;0.15;;;;;;;18.23;75.40;99954.88;4952323;28;20039;-60